Station Historical Data
Daily Summary for April 28, 2017 Units:  Both    English   Metric
« Previous Day
Next Day »
Daily Weekly Monthly Yearly Custom
  High: Low: Average:
Temperature: 59.8 °F /  15.4 °C 47.4 °F /  8.6 °C 53.5 °F /  11.9 °C
Dew Point: 48.2 °F /  9 °C 41.5 °F /  5.3 °C 44.1 °F /  6.7 °C
Humidity: 80% 60% 71%
Wind Speed: 17.0mph /  27.4km/h - 5.4mph /  8.7km/h
Wind Gust: 22.0mph /  35.4km/h - -
Wind- - SW
Pressure: 30.04 in /  1017.2 hPa 29.75 in /  1007.3 hPa -
Precipitation: 0.00 in /  0 mm    
Historical Graphs
 
 
Tabular Data for April 28, 2017
Time Temperature Dew Point Pressure Wind Wind Speed Wind Gust Humidity Rainfall Rate (Hourly)
00:00 54.4 °F /  12.4 °C 46.6 °F /  8.1 °C 29.75in /  1007.3hPa WSW 8.0mph /  12.9km/h 19.0mph /  30.6km/h 75% 0.00in /  0mm
00:05 54.1 °F /  12.3 °C 46.3 °F /  7.9 °C 29.75in /  1007.3hPa SW 9.0mph /  14.5km/h 17.0mph /  27.4km/h 75% 0.00in /  0mm
00:10 53.8 °F /  12.1 °C 46.1 °F /  7.8 °C 29.75in /  1007.3hPa WSW 6.0mph /  9.7km/h 13.0mph /  20.9km/h 75% 0.00in /  0mm
00:15 53.6 °F /  12 °C 45.9 °F /  7.7 °C 29.76in /  1007.7hPa West 12.0mph /  19.3km/h 18.0mph /  29km/h 75% 0.00in /  0mm
00:20 53.5 °F /  11.9 °C 45.8 °F /  7.7 °C 29.76in /  1007.7hPa WSW 17.0mph /  27.4km/h 17.0mph /  27.4km/h 75% 0.00in /  0mm
00:25 53.4 °F /  11.9 °C 45.7 °F /  7.6 °C 29.77in /  1008hPa SW 8.0mph /  12.9km/h 20.0mph /  32.2km/h 75% 0.00in /  0mm
00:30 53.2 °F /  11.8 °C 45.5 °F /  7.5 °C 29.77in /  1008hPa SW 9.0mph /  14.5km/h 20.0mph /  32.2km/h 75% 0.00in /  0mm
00:35 53.0 °F /  11.7 °C 45.6 °F /  7.6 °C 29.78in /  1008.4hPa SW 10.0mph /  16.1km/h 20.0mph /  32.2km/h 76% 0.00in /  0mm
00:40 52.8 °F /  11.6 °C 45.4 °F /  7.4 °C 29.78in /  1008.4hPa SW 9.0mph /  14.5km/h 19.0mph /  30.6km/h 76% 0.00in /  0mm
00:45 52.6 °F /  11.4 °C 45.2 °F /  7.3 °C 29.79in /  1008.7hPa SW 8.0mph /  12.9km/h 21.0mph /  33.8km/h 76% 0.00in /  0mm
00:50 52.4 °F /  11.3 °C 45.4 °F /  7.4 °C 29.79in /  1008.7hPa South 6.0mph /  9.7km/h 21.0mph /  33.8km/h 77% 0.00in /  0mm
00:55 52.2 °F /  11.2 °C 45.2 °F /  7.3 °C 29.80in /  1009hPa SW 10.0mph /  16.1km/h 18.0mph /  29km/h 77% 0.00in /  0mm
01:00 52.0 °F /  11.1 °C 45.4 °F /  7.4 °C 29.80in /  1009hPa SSW 13.0mph /  20.9km/h 15.0mph /  24.1km/h 78% 0.00in /  0mm
01:05 51.9 °F /  11.1 °C 45.3 °F /  7.4 °C 29.80in /  1009hPa SW 7.0mph /  11.3km/h 22.0mph /  35.4km/h 78% 0.00in /  0mm
01:10 51.9 °F /  11.1 °C 45.3 °F /  7.4 °C 29.81in /  1009.4hPa WSW 9.0mph /  14.5km/h 21.0mph /  33.8km/h 78% 0.00in /  0mm
01:15 51.8 °F /  11 °C 45.2 °F /  7.3 °C 29.81in /  1009.4hPa West 4.0mph /  6.4km/h 16.0mph /  25.7km/h 78% 0.00in /  0mm
01:20 51.8 °F /  11 °C 45.2 °F /  7.3 °C 29.81in /  1009.4hPa SW 12.0mph /  19.3km/h 17.0mph /  27.4km/h 78% 0.00in /  0mm
01:25 51.8 °F /  11 °C 45.2 °F /  7.3 °C 29.82in /  1009.7hPa SW 10.0mph /  16.1km/h 19.0mph /  30.6km/h 78% 0.00in /  0mm
01:30 51.7 °F /  10.9 °C 45.1 °F /  7.3 °C 29.82in /  1009.7hPa SW 10.0mph /  16.1km/h 20.0mph /  32.2km/h 78% 0.00in /  0mm
01:35 51.5 °F /  10.8 °C 44.9 °F /  7.2 °C 29.82in /  1009.7hPa SW 9.0mph /  14.5km/h 20.0mph /  32.2km/h 78% 0.00in /  0mm
01:40 51.5 °F /  10.8 °C 44.9 °F /  7.2 °C 29.82in /  1009.7hPa SW 9.0mph /  14.5km/h 20.0mph /  32.2km/h 78% 0.00in /  0mm
01:45 51.3 °F /  10.7 °C 44.7 °F /  7.1 °C 29.82in /  1009.7hPa SW 8.0mph /  12.9km/h 17.0mph /  27.4km/h 78% 0.00in /  0mm
01:50 51.2 °F /  10.7 °C 44.6 °F /  7 °C 29.82in /  1009.7hPa SW 7.0mph /  11.3km/h 16.0mph /  25.7km/h 78% 0.00in /  0mm
01:55 51.0 °F /  10.6 °C 44.4 °F /  6.9 °C 29.82in /  1009.7hPa SSW 5.0mph /  8km/h 17.0mph /  27.4km/h 78% 0.00in /  0mm
02:00 50.9 °F /  10.5 °C 44.6 °F /  7 °C 29.83in /  1010hPa WSW 13.0mph /  20.9km/h 18.0mph /  29km/h 79% 0.00in /  0mm
02:05 50.8 °F /  10.4 °C 44.5 °F /  6.9 °C 29.83in /  1010hPa SW 5.0mph /  8km/h 19.0mph /  30.6km/h 79% 0.00in /  0mm
02:10 50.8 °F /  10.4 °C 44.5 °F /  6.9 °C 29.83in /  1010hPa WSW 5.0mph /  8km/h 14.0mph /  22.5km/h 79% 0.00in /  0mm
02:15 50.6 °F /  10.3 °C 44.3 °F /  6.8 °C 29.83in /  1010hPa SW 11.0mph /  17.7km/h 20.0mph /  32.2km/h 79% 0.00in /  0mm
02:20 50.4 °F /  10.2 °C 44.1 °F /  6.7 °C 29.83in /  1010hPa SW 8.0mph /  12.9km/h 20.0mph /  32.2km/h 79% 0.00in /  0mm
02:25 50.3 °F /  10.2 °C 44.0 °F /  6.7 °C 29.83in /  1010hPa SW 8.0mph /  12.9km/h 19.0mph /  30.6km/h 79% 0.00in /  0mm
02:30 50.2 °F /  10.1 °C 43.9 °F /  6.6 °C 29.83in /  1010hPa SW 8.0mph /  12.9km/h 18.0mph /  29km/h 79% 0.00in /  0mm
02:35 50.1 °F /  10.1 °C 44.2 °F /  6.8 °C 29.84in /  1010.4hPa SW 8.0mph /  12.9km/h 18.0mph /  29km/h 80% 0.00in /  0mm
02:40 50.0 °F /  10 °C 44.1 °F /  6.7 °C 29.84in /  1010.4hPa SW 8.0mph /  12.9km/h 18.0mph /  29km/h 80% 0.00in /  0mm
02:45 49.8 °F /  9.9 °C 43.5 °F /  6.4 °C 29.84in /  1010.4hPa SW 8.0mph /  12.9km/h 18.0mph /  29km/h 79% 0.00in /  0mm
02:50 49.6 °F /  9.8 °C 43.4 °F /  6.3 °C 29.85in /  1010.7hPa SW 7.0mph /  11.3km/h 17.0mph /  27.4km/h 79% 0.00in /  0mm
02:55 49.4 °F /  9.7 °C 43.2 °F /  6.2 °C 29.85in /  1010.7hPa West 6.0mph /  9.7km/h 15.0mph /  24.1km/h 79% 0.00in /  0mm
03:00 49.3 °F /  9.6 °C 43.1 °F /  6.2 °C 29.85in /  1010.7hPa SSW 7.0mph /  11.3km/h 17.0mph /  27.4km/h 79% 0.00in /  0mm
03:05 49.1 °F /  9.5 °C 42.9 °F /  6.1 °C 29.86in /  1011.1hPa SW 9.0mph /  14.5km/h 17.0mph /  27.4km/h 79% 0.00in /  0mm
03:10 49.0 °F /  9.4 °C 42.8 °F /  6 °C 29.86in /  1011.1hPa SW 5.0mph /  8km/h 15.0mph /  24.1km/h 79% 0.00in /  0mm
03:15 48.9 °F /  9.4 °C 42.7 °F /  5.9 °C 29.86in /  1011.1hPa WSW 8.0mph /  12.9km/h 15.0mph /  24.1km/h 79% 0.00in /  0mm
03:20 48.8 °F /  9.3 °C 42.6 °F /  5.9 °C 29.86in /  1011.1hPa WSW 6.0mph /  9.7km/h 15.0mph /  24.1km/h 79% 0.00in /  0mm
03:25 48.6 °F /  9.2 °C 42.4 °F /  5.8 °C 29.86in /  1011.1hPa SW 6.0mph /  9.7km/h 14.0mph /  22.5km/h 79% 0.00in /  0mm
03:30 48.5 °F /  9.2 °C 42.3 °F /  5.7 °C 29.87in /  1011.4hPa SW 6.0mph /  9.7km/h 14.0mph /  22.5km/h 79% 0.00in /  0mm
03:35 48.4 °F /  9.1 °C 42.2 °F /  5.7 °C 29.87in /  1011.4hPa SW 7.0mph /  11.3km/h 14.0mph /  22.5km/h 79% 0.00in /  0mm
03:40 48.3 °F /  9.1 °C 42.1 °F /  5.6 °C 29.87in /  1011.4hPa SW 7.0mph /  11.3km/h 14.0mph /  22.5km/h 79% 0.00in /  0mm
03:45 48.1 °F /  8.9 °C 41.9 °F /  5.5 °C 29.87in /  1011.4hPa West 6.0mph /  9.7km/h 17.0mph /  27.4km/h 79% 0.00in /  0mm
03:50 48.0 °F /  8.9 °C 41.8 °F /  5.4 °C 29.88in /  1011.7hPa SW 10.0mph /  16.1km/h 14.0mph /  22.5km/h 79% 0.00in /  0mm
03:55 48.0 °F /  8.9 °C 41.8 °F /  5.4 °C 29.88in /  1011.7hPa SW 7.0mph /  11.3km/h 11.0mph /  17.7km/h 79% 0.00in /  0mm
04:00 47.9 °F /  8.8 °C 41.7 °F /  5.4 °C 29.88in /  1011.7hPa WSW 8.0mph /  12.9km/h 13.0mph /  20.9km/h 79% 0.00in /  0mm
04:05 47.9 °F /  8.8 °C 41.7 °F /  5.4 °C 29.88in /  1011.7hPa SW 6.0mph /  9.7km/h 13.0mph /  20.9km/h 79% 0.00in /  0mm
04:10 47.8 °F /  8.8 °C 41.6 °F /  5.3 °C 29.88in /  1011.7hPa WSW 5.0mph /  8km/h 13.0mph /  20.9km/h 79% 0.00in /  0mm
04:15 47.7 °F /  8.7 °C 41.5 °F /  5.3 °C 29.88in /  1011.7hPa WSW 4.0mph /  6.4km/h 11.0mph /  17.7km/h 79% 0.00in /  0mm
04:20 47.6 °F /  8.7 °C 41.7 °F /  5.4 °C 29.88in /  1011.7hPa WSW 6.0mph /  9.7km/h 12.0mph /  19.3km/h 80% 0.00in /  0mm
04:25 47.7 °F /  8.7 °C 41.8 °F /  5.4 °C 29.89in /  1012.1hPa SW 6.0mph /  9.7km/h 12.0mph /  19.3km/h 80% 0.00in /  0mm
04:30 47.6 °F /  8.7 °C 41.7 °F /  5.4 °C 29.89in /  1012.1hPa SW 5.0mph /  8km/h 12.0mph /  19.3km/h 80% 0.00in /  0mm
04:35 47.5 °F /  8.6 °C 41.6 °F /  5.3 °C 29.89in /  1012.1hPa WSW 5.0mph /  8km/h 11.0mph /  17.7km/h 80% 0.00in /  0mm
04:40 47.6 °F /  8.7 °C 41.7 °F /  5.4 °C 29.90in /  1012.4hPa WSW 5.0mph /  8km/h 12.0mph /  19.3km/h 80% 0.00in /  0mm
04:45 47.5 °F /  8.6 °C 41.6 °F /  5.3 °C 29.90in /  1012.4hPa WSW 5.0mph /  8km/h 8.0mph /  12.9km/h 80% 0.00in /  0mm
04:50 47.4 °F /  8.6 °C 41.5 °F /  5.3 °C 29.90in /  1012.4hPa SW 5.0mph /  8km/h 12.0mph /  19.3km/h 80% 0.00in /  0mm
04:55 47.4 °F /  8.6 °C 41.5 °F /  5.3 °C 29.90in /  1012.4hPa SW 5.0mph /  8km/h 12.0mph /  19.3km/h 80% 0.00in /  0mm
05:00 47.5 °F /  8.6 °C 41.6 °F /  5.3 °C 29.90in /  1012.4hPa West 3.0mph /  4.8km/h 10.0mph /  16.1km/h 80% 0.00in /  0mm
05:05 47.6 °F /  8.7 °C 41.7 °F /  5.4 °C 29.90in /  1012.4hPa West 4.0mph /  6.4km/h 15.0mph /  24.1km/h 80% 0.00in /  0mm
05:10 47.6 °F /  8.7 °C 41.7 °F /  5.4 °C 29.91in /  1012.8hPa SSW 3.0mph /  4.8km/h 10.0mph /  16.1km/h 80% 0.00in /  0mm
05:15 47.7 °F /  8.7 °C 41.8 °F /  5.4 °C 29.91in /  1012.8hPa WSW 5.0mph /  8km/h 9.0mph /  14.5km/h 80% 0.00in /  0mm
05:20 47.7 °F /  8.7 °C 41.8 °F /  5.4 °C 29.91in /  1012.8hPa WSW 4.0mph /  6.4km/h 10.0mph /  16.1km/h 80% 0.00in /  0mm
05:25 47.8 °F /  8.8 °C 41.6 °F /  5.3 °C 29.91in /  1012.8hPa WSW 5.0mph /  8km/h 10.0mph /  16.1km/h 79% 0.00in /  0mm
05:30 47.9 °F /  8.8 °C 41.7 °F /  5.4 °C 29.91in /  1012.8hPa WSW 5.0mph /  8km/h 10.0mph /  16.1km/h 79% 0.00in /  0mm
05:35 48.1 °F /  8.9 °C 41.9 °F /  5.5 °C 29.92in /  1013.1hPa SW 4.0mph /  6.4km/h 9.0mph /  14.5km/h 79% 0.00in /  0mm
05:40 48.3 °F /  9.1 °C 42.1 °F /  5.6 °C 29.92in /  1013.1hPa SW 4.0mph /  6.4km/h 9.0mph /  14.5km/h 79% 0.00in /  0mm
05:45 48.3 °F /  9.1 °C 41.8 °F /  5.4 °C 29.92in /  1013.1hPa WSW 5.0mph /  8km/h 10.0mph /  16.1km/h 78% 0.00in /  0mm
05:50 48.5 °F /  9.2 °C 42.0 °F /  5.6 °C 29.92in /  1013.1hPa SW 3.0mph /  4.8km/h 11.0mph /  17.7km/h 78% 0.00in /  0mm
05:55 48.6 °F /  9.2 °C 42.0 °F /  5.6 °C 29.92in /  1013.1hPa WSW 5.0mph /  8km/h 11.0mph /  17.7km/h 78% 0.00in /  0mm
06:00 48.6 °F /  9.2 °C 42.0 °F /  5.6 °C 29.92in /  1013.1hPa SW 4.0mph /  6.4km/h 8.0mph /  12.9km/h 78% 0.00in /  0mm
06:05 48.5 °F /  9.2 °C 42.0 °F /  5.6 °C 29.92in /  1013.1hPa SW 4.0mph /  6.4km/h 8.0mph /  12.9km/h 78% 0.00in /  0mm
06:10 48.5 °F /  9.2 °C 42.0 °F /  5.6 °C 29.92in /  1013.1hPa SW 4.0mph /  6.4km/h 8.0mph /  12.9km/h 78% 0.00in /  0mm
06:15 48.4 °F /  9.1 °C 41.9 °F /  5.5 °C 29.93in /  1013.4hPa SW 5.0mph /  8km/h 7.0mph /  11.3km/h 78% 0.00in /  0mm
06:20 48.3 °F /  9.1 °C 42.1 °F /  5.6 °C 29.93in /  1013.4hPa SW 3.0mph /  4.8km/h 6.0mph /  9.7km/h 79% 0.00in /  0mm
06:25 48.2 °F /  9 °C 42.0 °F /  5.6 °C 29.93in /  1013.4hPa SW 4.0mph /  6.4km/h 11.0mph /  17.7km/h 79% 0.00in /  0mm
06:30 48.1 °F /  8.9 °C 41.9 °F /  5.5 °C 29.93in /  1013.4hPa SW 4.0mph /  6.4km/h 9.0mph /  14.5km/h 79% 0.00in /  0mm
06:35 47.9 °F /  8.8 °C 41.7 °F /  5.4 °C 29.93in /  1013.4hPa SW 5.0mph /  8km/h 11.0mph /  17.7km/h 79% 0.00in /  0mm
06:40 47.7 °F /  8.7 °C 41.8 °F /  5.4 °C 29.94in /  1013.8hPa SW 4.0mph /  6.4km/h 11.0mph /  17.7km/h 80% 0.00in /  0mm
06:45 47.6 °F /  8.7 °C 41.7 °F /  5.4 °C 29.94in /  1013.8hPa WSW 5.0mph /  8km/h 7.0mph /  11.3km/h 80% 0.00in /  0mm
06:50 47.7 °F /  8.7 °C 41.8 °F /  5.4 °C 29.95in /  1014.1hPa SW 5.0mph /  8km/h 9.0mph /  14.5km/h 80% 0.00in /  0mm
06:55 47.7 °F /  8.7 °C 41.8 °F /  5.4 °C 29.95in /  1014.1hPa SW 5.0mph /  8km/h 9.0mph /  14.5km/h 80% 0.00in /  0mm
07:00 47.8 °F /  8.8 °C 41.9 °F /  5.5 °C 29.96in /  1014.4hPa SW 5.0mph /  8km/h 9.0mph /  14.5km/h 80% 0.00in /  0mm
07:05 47.8 °F /  8.8 °C 41.9 °F /  5.5 °C 29.96in /  1014.4hPa WSW 5.0mph /  8km/h 10.0mph /  16.1km/h 80% 0.00in /  0mm
07:10 47.9 °F /  8.8 °C 42.0 °F /  5.6 °C 29.97in /  1014.8hPa SW 5.0mph /  8km/h 10.0mph /  16.1km/h 80% 0.00in /  0mm
07:15 47.9 °F /  8.8 °C 42.0 °F /  5.6 °C 29.97in /  1014.8hPa SW 6.0mph /  9.7km/h 9.0mph /  14.5km/h 80% 0.00in /  0mm
07:20 47.9 °F /  8.8 °C 42.0 °F /  5.6 °C 29.97in /  1014.8hPa WSW 4.0mph /  6.4km/h 7.0mph /  11.3km/h 80% 0.00in /  0mm
07:25 48.3 °F /  9.1 °C 42.1 °F /  5.6 °C 29.98in /  1015.1hPa WSW 7.0mph /  11.3km/h 8.0mph /  12.9km/h 79% 0.00in /  0mm
07:30 48.8 °F /  9.3 °C 42.6 °F /  5.9 °C 29.98in /  1015.1hPa SW 3.0mph /  4.8km/h 8.0mph /  12.9km/h 79% 0.00in /  0mm
07:35 49.3 °F /  9.6 °C 42.7 °F /  5.9 °C 29.98in /  1015.1hPa SSW 5.0mph /  8km/h 8.0mph /  12.9km/h 78% 0.00in /  0mm
07:40 49.8 °F /  9.9 °C 42.9 °F /  6.1 °C 29.98in /  1015.1hPa SW 6.0mph /  9.7km/h 9.0mph /  14.5km/h 77% 0.00in /  0mm
07:45 50.2 °F /  10.1 °C 42.6 °F /  5.9 °C 29.99in /  1015.5hPa WSW 6.0mph /  9.7km/h 11.0mph /  17.7km/h 75% 0.00in /  0mm
07:50 50.3 °F /  10.2 °C 42.7 °F /  5.9 °C 29.99in /  1015.5hPa WSW 6.0mph /  9.7km/h 11.0mph /  17.7km/h 75% 0.00in /  0mm
07:55 50.6 °F /  10.3 °C 43.0 °F /  6.1 °C 29.99in /  1015.5hPa WSW 5.0mph /  8km/h 10.0mph /  16.1km/h 75% 0.00in /  0mm
08:00 51.2 °F /  10.7 °C 43.5 °F /  6.4 °C 30.00in /  1015.8hPa WSW 4.0mph /  6.4km/h 8.0mph /  12.9km/h 75% 0.00in /  0mm
08:05 51.2 °F /  10.7 °C 43.2 °F /  6.2 °C 30.00in /  1015.8hPa WSW 4.0mph /  6.4km/h 8.0mph /  12.9km/h 74% 0.00in /  0mm
08:10 51.2 °F /  10.7 °C 43.2 °F /  6.2 °C 30.00in /  1015.8hPa SW 6.0mph /  9.7km/h 10.0mph /  16.1km/h 74% 0.00in /  0mm
08:15 51.4 °F /  10.8 °C 43.0 °F /  6.1 °C 30.00in /  1015.8hPa WSW 5.0mph /  8km/h 12.0mph /  19.3km/h 73% 0.00in /  0mm
08:20 52.0 °F /  11.1 °C 43.3 °F /  6.3 °C 30.00in /  1015.8hPa SW 6.0mph /  9.7km/h 12.0mph /  19.3km/h 72% 0.00in /  0mm
08:25 52.4 °F /  11.3 °C 43.3 °F /  6.3 °C 30.00in /  1015.8hPa SW 6.0mph /  9.7km/h 11.0mph /  17.7km/h 71% 0.00in /  0mm
08:30 52.5 °F /  11.4 °C 43.0 °F /  6.1 °C 30.01in /  1016.1hPa SW 6.0mph /  9.7km/h 12.0mph /  19.3km/h 70% 0.00in /  0mm
08:35 52.3 °F /  11.3 °C 43.5 °F /  6.4 °C 30.01in /  1016.1hPa SSW 6.0mph /  9.7km/h 12.0mph /  19.3km/h 72% 0.00in /  0mm
08:40 52.2 °F /  11.2 °C 43.4 °F /  6.3 °C 30.01in /  1016.1hPa SSW 3.0mph /  4.8km/h 15.0mph /  24.1km/h 72% 0.00in /  0mm
08:45 52.2 °F /  11.2 °C 43.4 °F /  6.3 °C 30.01in /  1016.1hPa SW 4.0mph /  6.4km/h 13.0mph /  20.9km/h 72% 0.00in /  0mm
08:50 52.2 °F /  11.2 °C 43.8 °F /  6.6 °C 30.01in /  1016.1hPa SW 5.0mph /  8km/h 13.0mph /  20.9km/h 73% 0.00in /  0mm
08:55 52.1 °F /  11.2 °C 43.3 °F /  6.3 °C 30.01in /  1016.1hPa SW 6.0mph /  9.7km/h 14.0mph /  22.5km/h 72% 0.00in /  0mm
09:00 52.4 °F /  11.3 °C 43.3 °F /  6.3 °C 30.01in /  1016.1hPa SW 7.0mph /  11.3km/h 15.0mph /  24.1km/h 71% 0.00in /  0mm
09:05 52.5 °F /  11.4 °C 43.0 °F /  6.1 °C 30.01in /  1016.1hPa West 7.0mph /  11.3km/h 17.0mph /  27.4km/h 70% 0.00in /  0mm
09:10 52.8 °F /  11.6 °C 42.9 °F /  6.1 °C 30.01in /  1016.1hPa WSW 8.0mph /  12.9km/h 11.0mph /  17.7km/h 69% 0.00in /  0mm
09:15 53.1 °F /  11.7 °C 42.8 °F /  6 °C 30.01in /  1016.1hPa WSW 5.0mph /  8km/h 14.0mph /  22.5km/h 68% 0.00in /  0mm
09:20 53.1 °F /  11.7 °C 42.8 °F /  6 °C 30.01in /  1016.1hPa SW 7.0mph /  11.3km/h 15.0mph /  24.1km/h 68% 0.00in /  0mm
09:25 53.3 °F /  11.8 °C 43.0 °F /  6.1 °C 30.00in /  1015.8hPa SW 7.0mph /  11.3km/h 15.0mph /  24.1km/h 68% 0.00in /  0mm
09:30 53.4 °F /  11.9 °C 42.7 °F /  5.9 °C 30.01in /  1016.1hPa SW 7.0mph /  11.3km/h 16.0mph /  25.7km/h 67% 0.00in /  0mm
09:35 54.0 °F /  12.2 °C 43.3 °F /  6.3 °C 30.01in /  1016.1hPa WSW 9.0mph /  14.5km/h 14.0mph /  22.5km/h 67% 0.00in /  0mm
09:40 54.4 °F /  12.4 °C 43.7 °F /  6.5 °C 30.01in /  1016.1hPa SSW 9.0mph /  14.5km/h 16.0mph /  25.7km/h 67% 0.00in /  0mm
09:45 54.1 °F /  12.3 °C 43.4 °F /  6.3 °C 30.00in /  1015.8hPa WSW 9.0mph /  14.5km/h 15.0mph /  24.1km/h 67% 0.00in /  0mm
09:50 54.7 °F /  12.6 °C 44.3 °F /  6.8 °C 30.01in /  1016.1hPa West 10.0mph /  16.1km/h 12.0mph /  19.3km/h 68% 0.00in /  0mm
09:55 54.8 °F /  12.7 °C 43.7 °F /  6.5 °C 30.01in /  1016.1hPa WSW 7.0mph /  11.3km/h 18.0mph /  29km/h 66% 0.00in /  0mm
10:00 54.8 °F /  12.7 °C 43.7 °F /  6.5 °C 30.01in /  1016.1hPa SW 8.0mph /  12.9km/h 18.0mph /  29km/h 66% 0.00in /  0mm
10:05 55.0 °F /  12.8 °C 44.6 °F /  7 °C 30.01in /  1016.1hPa WSW 8.0mph /  12.9km/h 16.0mph /  25.7km/h 68% 0.00in /  0mm
10:10 55.5 °F /  13.1 °C 44.7 °F /  7.1 °C 30.02in /  1016.5hPa WSW 7.0mph /  11.3km/h 11.0mph /  17.7km/h 67% 0.00in /  0mm
10:15 56.1 °F /  13.4 °C 44.9 °F /  7.2 °C 30.02in /  1016.5hPa WSW 13.0mph /  20.9km/h 14.0mph /  22.5km/h 66% 0.00in /  0mm
10:20 55.8 °F /  13.2 °C 44.2 °F /  6.8 °C 30.02in /  1016.5hPa WSW 7.0mph /  11.3km/h 13.0mph /  20.9km/h 65% 0.00in /  0mm
10:25 55.7 °F /  13.2 °C 43.3 °F /  6.3 °C 30.02in /  1016.5hPa WSW 8.0mph /  12.9km/h 15.0mph /  24.1km/h 63% 0.00in /  0mm
10:30 55.4 °F /  13 °C 43.4 °F /  6.3 °C 30.02in /  1016.5hPa WSW 8.0mph /  12.9km/h 15.0mph /  24.1km/h 64% 0.00in /  0mm
10:35 55.5 °F /  13.1 °C 43.9 °F /  6.6 °C 30.01in /  1016.1hPa WSW 8.0mph /  12.9km/h 14.0mph /  22.5km/h 65% 0.00in /  0mm
10:40 55.8 °F /  13.2 °C 44.2 °F /  6.8 °C 30.01in /  1016.1hPa WSW 7.0mph /  11.3km/h 15.0mph /  24.1km/h 65% 0.00in /  0mm
10:45 56.3 °F /  13.5 °C 43.9 °F /  6.6 °C 30.01in /  1016.1hPa West 7.0mph /  11.3km/h 18.0mph /  29km/h 63% 0.00in /  0mm
10:50 55.8 °F /  13.2 °C 43.4 °F /  6.3 °C 30.01in /  1016.1hPa WSW 8.0mph /  12.9km/h 17.0mph /  27.4km/h 63% 0.00in /  0mm
10:55 55.7 °F /  13.2 °C 43.3 °F /  6.3 °C 30.01in /  1016.1hPa WSW 8.0mph /  12.9km/h 17.0mph /  27.4km/h 63% 0.00in /  0mm
11:00 56.4 °F /  13.6 °C 44.0 °F /  6.7 °C 30.01in /  1016.1hPa WSW 4.0mph /  6.4km/h 15.0mph /  24.1km/h 63% 0.00in /  0mm
11:05 56.5 °F /  13.6 °C 45.3 °F /  7.4 °C 30.01in /  1016.1hPa West 6.0mph /  9.7km/h 14.0mph /  22.5km/h 66% 0.00in /  0mm
11:10 56.2 °F /  13.4 °C 44.2 °F /  6.8 °C 30.01in /  1016.1hPa WSW 5.0mph /  8km/h 16.0mph /  25.7km/h 64% 0.00in /  0mm
11:15 57.0 °F /  13.9 °C 44.9 °F /  7.2 °C 30.01in /  1016.1hPa WSW 5.0mph /  8km/h 13.0mph /  20.9km/h 64% 0.00in /  0mm
11:20 57.0 °F /  13.9 °C 44.5 °F /  6.9 °C 30.01in /  1016.1hPa SW 4.0mph /  6.4km/h 19.0mph /  30.6km/h 63% 0.00in /  0mm
11:25 57.1 °F /  13.9 °C 45.0 °F /  7.2 °C 30.01in /  1016.1hPa WSW 7.0mph /  11.3km/h 19.0mph /  30.6km/h 64% 0.00in /  0mm
11:30 56.9 °F /  13.8 °C 45.3 °F /  7.4 °C 30.01in /  1016.1hPa WSW 7.0mph /  11.3km/h 13.0mph /  20.9km/h 65% 0.00in /  0mm
11:35 56.9 °F /  13.8 °C 44.4 °F /  6.9 °C 30.01in /  1016.1hPa WSW 7.0mph /  11.3km/h 13.0mph /  20.9km/h 63% 0.00in /  0mm
11:40 56.4 °F /  13.6 °C 44.8 °F /  7.1 °C 30.00in /  1015.8hPa WSW 8.0mph /  12.9km/h 13.0mph /  20.9km/h 65% 0.00in /  0mm
11:45 55.7 °F /  13.2 °C 43.7 °F /  6.5 °C 30.00in /  1015.8hPa WSW 8.0mph /  12.9km/h 14.0mph /  22.5km/h 64% 0.00in /  0mm
11:50 54.9 °F /  12.7 °C 44.1 °F /  6.7 °C 30.01in /  1016.1hPa WSW 8.0mph /  12.9km/h 16.0mph /  25.7km/h 67% 0.00in /  0mm
11:55 55.3 °F /  12.9 °C 44.1 °F /  6.7 °C 30.00in /  1015.8hPa WSW 7.0mph /  11.3km/h 16.0mph /  25.7km/h 66% 0.00in /  0mm
12:00 55.7 °F /  13.2 °C 44.5 °F /  6.9 °C 30.00in /  1015.8hPa SW 5.0mph /  8km/h 12.0mph /  19.3km/h 66% 0.00in /  0mm
12:05 55.9 °F /  13.3 °C 44.3 °F /  6.8 °C 30.00in /  1015.8hPa WSW 5.0mph /  8km/h 13.0mph /  20.9km/h 65% 0.00in /  0mm
12:10 56.8 °F /  13.8 °C 45.2 °F /  7.3 °C 30.00in /  1015.8hPa WSW 9.0mph /  14.5km/h 13.0mph /  20.9km/h 65% 0.00in /  0mm
12:15 58.0 °F /  14.4 °C 46.7 °F /  8.2 °C 30.00in /  1015.8hPa West 3.0mph /  4.8km/h 14.0mph /  22.5km/h 66% 0.00in /  0mm
12:20 57.5 °F /  14.2 °C 45.0 °F /  7.2 °C 30.00in /  1015.8hPa WSW 7.0mph /  11.3km/h 11.0mph /  17.7km/h 63% 0.00in /  0mm
12:25 57.5 °F /  14.2 °C 45.0 °F /  7.2 °C 30.00in /  1015.8hPa WSW 6.0mph /  9.7km/h 12.0mph /  19.3km/h 63% 0.00in /  0mm
12:30 58.0 °F /  14.4 °C 45.9 °F /  7.7 °C 30.01in /  1016.1hPa WSW 7.0mph /  11.3km/h 13.0mph /  20.9km/h 64% 0.00in /  0mm
12:35 59.4 °F /  15.2 °C 47.6 °F /  8.7 °C 30.02in /  1016.5hPa WSW 7.0mph /  11.3km/h 17.0mph /  27.4km/h 65% 0.00in /  0mm
12:40 59.3 °F /  15.2 °C 46.3 °F /  7.9 °C 30.02in /  1016.5hPa SW 7.0mph /  11.3km/h 17.0mph /  27.4km/h 62% 0.00in /  0mm
12:45 58.3 °F /  14.6 °C 45.3 °F /  7.4 °C 30.02in /  1016.5hPa WSW 8.0mph /  12.9km/h 16.0mph /  25.7km/h 62% 0.00in /  0mm
12:50 58.5 °F /  14.7 °C 45.5 °F /  7.5 °C 30.01in /  1016.1hPa WSW 8.0mph /  12.9km/h 16.0mph /  25.7km/h 62% 0.00in /  0mm
12:55 58.4 °F /  14.7 °C 45.4 °F /  7.4 °C 30.00in /  1015.8hPa WSW 4.0mph /  6.4km/h 16.0mph /  25.7km/h 62% 0.00in /  0mm
13:00 58.0 °F /  14.4 °C 45.9 °F /  7.7 °C 30.00in /  1015.8hPa West 10.0mph /  16.1km/h 12.0mph /  19.3km/h 64% 0.00in /  0mm
13:05 59.2 °F /  15.1 °C 46.6 °F /  8.1 °C 30.01in /  1016.1hPa West 5.0mph /  8km/h 10.0mph /  16.1km/h 63% 0.00in /  0mm
13:10 57.9 °F /  14.4 °C 45.0 °F /  7.2 °C 30.01in /  1016.1hPa SW 6.0mph /  9.7km/h 14.0mph /  22.5km/h 62% 0.00in /  0mm
13:15 57.2 °F /  14 °C 45.1 °F /  7.3 °C 30.01in /  1016.1hPa WSW 5.0mph /  8km/h 14.0mph /  22.5km/h 64% 0.00in /  0mm
13:20 57.9 °F /  14.4 °C 45.4 °F /  7.4 °C 30.01in /  1016.1hPa SW 9.0mph /  14.5km/h 12.0mph /  19.3km/h 63% 0.00in /  0mm
13:25 57.9 °F /  14.4 °C 45.4 °F /  7.4 °C 30.01in /  1016.1hPa SW 4.0mph /  6.4km/h 13.0mph /  20.9km/h 63% 0.00in /  0mm
13:30 59.1 °F /  15.1 °C 46.5 °F /  8.1 °C 30.01in /  1016.1hPa SW 6.0mph /  9.7km/h 14.0mph /  22.5km/h 63% 0.00in /  0mm
13:35 59.6 °F /  15.3 °C 48.2 °F /  9 °C 30.01in /  1016.1hPa WSW 6.0mph /  9.7km/h 14.0mph /  22.5km/h 66% 0.00in /  0mm
13:40 59.8 °F /  15.4 °C 47.6 °F /  8.7 °C 30.01in /  1016.1hPa WSW 6.0mph /  9.7km/h 11.0mph /  17.7km/h 64% 0.00in /  0mm
13:45 59.2 °F /  15.1 °C 46.6 °F /  8.1 °C 30.01in /  1016.1hPa SW 6.0mph /  9.7km/h 13.0mph /  20.9km/h 63% 0.00in /  0mm
13:50 57.9 °F /  14.4 °C 45.4 °F /  7.4 °C 30.01in /  1016.1hPa WSW 7.0mph /  11.3km/h 14.0mph /  22.5km/h 63% 0.00in /  0mm
13:55 57.7 °F /  14.3 °C 45.2 °F /  7.3 °C 30.01in /  1016.1hPa WSW 8.0mph /  12.9km/h 15.0mph /  24.1km/h 63% 0.00in /  0mm
14:00 58.4 °F /  14.7 °C 47.5 °F /  8.6 °C 30.01in /  1016.1hPa WSW 7.0mph /  11.3km/h 15.0mph /  24.1km/h 67% 0.00in /  0mm
14:05 59.0 °F /  15 °C 47.2 °F /  8.4 °C 30.01in /  1016.1hPa WSW 4.0mph /  6.4km/h 9.0mph /  14.5km/h 65% 0.00in /  0mm
14:10 58.6 °F /  14.8 °C 46.0 °F /  7.8 °C 30.02in /  1016.5hPa WSW 12.0mph /  19.3km/h 12.0mph /  19.3km/h 63% 0.00in /  0mm
14:15 58.0 °F /  14.4 °C 46.3 °F /  7.9 °C 30.02in /  1016.5hPa West 8.0mph /  12.9km/h 14.0mph /  22.5km/h 65% 0.00in /  0mm
14:20 57.8 °F /  14.3 °C 45.7 °F /  7.6 °C 30.02in /  1016.5hPa SW 7.0mph /  11.3km/h 13.0mph /  20.9km/h 64% 0.00in /  0mm
14:25 57.6 °F /  14.2 °C 45.9 °F /  7.7 °C 30.02in /  1016.5hPa West 7.0mph /  11.3km/h 14.0mph /  22.5km/h 65% 0.00in /  0mm
14:30 58.6 °F /  14.8 °C 46.9 °F /  8.3 °C 30.02in /  1016.5hPa South 5.0mph /  8km/h 15.0mph /  24.1km/h 65% 0.00in /  0mm
14:35 57.6 °F /  14.2 °C 45.1 °F /  7.3 °C 30.02in /  1016.5hPa SW 6.0mph /  9.7km/h 15.0mph /  24.1km/h 63% 0.00in /  0mm
14:40 57.0 °F /  13.9 °C 45.3 °F /  7.4 °C 30.02in /  1016.5hPa WSW 7.0mph /  11.3km/h 13.0mph /  20.9km/h 65% 0.00in /  0mm
14:45 57.8 °F /  14.3 °C 46.1 °F /  7.8 °C 30.02in /  1016.5hPa SW 6.0mph /  9.7km/h 13.0mph /  20.9km/h 65% 0.00in /  0mm
14:50 58.1 °F /  14.5 °C 46.0 °F /  7.8 °C 30.01in /  1016.1hPa SW 6.0mph /  9.7km/h 12.0mph /  19.3km/h 64% 0.00in /  0mm
14:55 58.6 °F /  14.8 °C 46.9 °F /  8.3 °C 30.02in /  1016.5hPa SW 6.0mph /  9.7km/h 12.0mph /  19.3km/h 65% 0.00in /  0mm
15:00 58.3 °F /  14.6 °C 46.6 °F /  8.1 °C 30.02in /  1016.5hPa SW 7.0mph /  11.3km/h 14.0mph /  22.5km/h 65% 0.00in /  0mm
15:05 58.0 °F /  14.4 °C 45.5 °F /  7.5 °C 30.03in /  1016.8hPa WSW 7.0mph /  11.3km/h 14.0mph /  22.5km/h 63% 0.00in /  0mm
15:10 57.5 °F /  14.2 °C 45.4 °F /  7.4 °C 30.02in /  1016.5hPa WSW 9.0mph /  14.5km/h 15.0mph /  24.1km/h 64% 0.00in /  0mm
15:15 57.5 °F /  14.2 °C 45.8 °F /  7.7 °C 30.01in /  1016.1hPa SSW 6.0mph /  9.7km/h 10.0mph /  16.1km/h 65% 0.00in /  0mm
15:20 56.9 °F /  13.8 °C 44.8 °F /  7.1 °C 30.01in /  1016.1hPa SW 5.0mph /  8km/h 12.0mph /  19.3km/h 64% 0.00in /  0mm
15:25 56.8 °F /  13.8 °C 44.7 °F /  7.1 °C 30.01in /  1016.1hPa SW 6.0mph /  9.7km/h 9.0mph /  14.5km/h 64% 0.00in /  0mm
15:30 56.7 °F /  13.7 °C 45.1 °F /  7.3 °C 30.01in /  1016.1hPa SW 4.0mph /  6.4km/h 9.0mph /  14.5km/h 65% 0.00in /  0mm
15:35 56.5 °F /  13.6 °C 44.5 °F /  6.9 °C 30.01in /  1016.1hPa WSW 4.0mph /  6.4km/h 9.0mph /  14.5km/h 64% 0.00in /  0mm
15:40 56.7 °F /  13.7 °C 44.7 °F /  7.1 °C 30.01in /  1016.1hPa SW 5.0mph /  8km/h 9.0mph /  14.5km/h 64% 0.00in /  0mm
15:45 57.1 °F /  13.9 °C 45.0 °F /  7.2 °C 30.01in /  1016.1hPa SW 5.0mph /  8km/h 10.0mph /  16.1km/h 64% 0.00in /  0mm
15:50 57.6 °F /  14.2 °C 45.9 °F /  7.7 °C 30.01in /  1016.1hPa WSW 5.0mph /  8km/h 10.0mph /  16.1km/h 65% 0.00in /  0mm
15:55 57.5 °F /  14.2 °C 45.0 °F /  7.2 °C 30.01in /  1016.1hPa WSW 5.0mph /  8km/h 9.0mph /  14.5km/h 63% 0.00in /  0mm
16:00 57.3 °F /  14.1 °C 44.8 °F /  7.1 °C 30.00in /  1015.8hPa SSW 6.0mph /  9.7km/h 8.0mph /  12.9km/h 63% 0.00in /  0mm
16:05 57.1 °F /  13.9 °C 45.0 °F /  7.2 °C 30.00in /  1015.8hPa SW 5.0mph /  8km/h 9.0mph /  14.5km/h 64% 0.00in /  0mm
16:10 57.7 °F /  14.3 °C 45.6 °F /  7.6 °C 30.00in /  1015.8hPa SW 5.0mph /  8km/h 11.0mph /  17.7km/h 64% 0.00in /  0mm
16:15 57.8 °F /  14.3 °C 45.3 °F /  7.4 °C 30.00in /  1015.8hPa SW 5.0mph /  8km/h 11.0mph /  17.7km/h 63% 0.00in /  0mm
16:20 58.5 °F /  14.7 °C 45.9 °F /  7.7 °C 30.00in /  1015.8hPa WSW 4.0mph /  6.4km/h 10.0mph /  16.1km/h 63% 0.00in /  0mm
16:25 58.6 °F /  14.8 °C 45.2 °F /  7.3 °C 30.01in /  1016.1hPa West 4.0mph /  6.4km/h 8.0mph /  12.9km/h 61% 0.00in /  0mm
16:30 58.7 °F /  14.8 °C 45.7 °F /  7.6 °C 30.00in /  1015.8hPa SW 4.0mph /  6.4km/h 10.0mph /  16.1km/h 62% 0.00in /  0mm
16:35 59.4 °F /  15.2 °C 45.5 °F /  7.5 °C 30.01in /  1016.1hPa SW 5.0mph /  8km/h 9.0mph /  14.5km/h 60% 0.00in /  0mm
16:40 59.0 °F /  15 °C 45.6 °F /  7.6 °C 30.01in /  1016.1hPa SW 5.0mph /  8km/h 9.0mph /  14.5km/h 61% 0.00in /  0mm
16:45 58.2 °F /  14.6 °C 45.7 °F /  7.6 °C 30.01in /  1016.1hPa WSW 5.0mph /  8km/h 9.0mph /  14.5km/h 63% 0.00in /  0mm
16:50 58.4 °F /  14.7 °C 45.4 °F /  7.4 °C 30.01in /  1016.1hPa WSW 5.0mph /  8km/h 9.0mph /  14.5km/h 62% 0.00in /  0mm
16:55 57.6 °F /  14.2 °C 45.5 °F /  7.5 °C 30.01in /  1016.1hPa SSW 3.0mph /  4.8km/h 10.0mph /  16.1km/h 64% 0.00in /  0mm
17:00 58.3 °F /  14.6 °C 46.2 °F /  7.9 °C 30.01in /  1016.1hPa SSW 5.0mph /  8km/h 6.0mph /  9.7km/h 64% 0.00in /  0mm
17:05 58.4 °F /  14.7 °C 45.4 °F /  7.4 °C 30.02in /  1016.5hPa SW 8.0mph /  12.9km/h 12.0mph /  19.3km/h 62% 0.00in /  0mm
17:10 57.7 °F /  14.3 °C 45.2 °F /  7.3 °C 30.02in /  1016.5hPa WSW 5.0mph /  8km/h 12.0mph /  19.3km/h 63% 0.00in /  0mm
17:15 57.5 °F /  14.2 °C 45.0 °F /  7.2 °C 30.03in /  1016.8hPa WSW 6.0mph /  9.7km/h 12.0mph /  19.3km/h 63% 0.00in /  0mm
17:20 57.1 °F /  13.9 °C 44.6 °F /  7 °C 30.03in /  1016.8hPa WSW 5.0mph /  8km/h 12.0mph /  19.3km/h 63% 0.00in /  0mm
17:25 56.5 °F /  13.6 °C 44.0 °F /  6.7 °C 30.03in /  1016.8hPa WSW 5.0mph /  8km/h 10.0mph /  16.1km/h 63% 0.00in /  0mm
17:30 56.2 °F /  13.4 °C 44.2 °F /  6.8 °C 30.03in /  1016.8hPa West 6.0mph /  9.7km/h 12.0mph /  19.3km/h 64% 0.00in /  0mm
17:35 56.0 °F /  13.3 °C 44.0 °F /  6.7 °C 30.04in /  1017.2hPa WSW 5.0mph /  8km/h 11.0mph /  17.7km/h 64% 0.00in /  0mm
17:40 56.1 °F /  13.4 °C 44.1 °F /  6.7 °C 30.04in /  1017.2hPa SW 8.0mph /  12.9km/h 9.0mph /  14.5km/h 64% 0.00in /  0mm
17:45 55.7 °F /  13.2 °C 43.7 °F /  6.5 °C 30.04in /  1017.2hPa West 6.0mph /  9.7km/h 11.0mph /  17.7km/h 64% 0.00in /  0mm
17:50 55.5 °F /  13.1 °C 43.5 °F /  6.4 °C 30.04in /  1017.2hPa SW 5.0mph /  8km/h 10.0mph /  16.1km/h 64% 0.00in /  0mm
17:55 55.4 °F /  13 °C 43.8 °F /  6.6 °C 30.04in /  1017.2hPa WSW 5.0mph /  8km/h 10.0mph /  16.1km/h 65% 0.00in /  0mm
18:00 55.3 °F /  12.9 °C 43.7 °F /  6.5 °C 30.04in /  1017.2hPa SSW 4.0mph /  6.4km/h 8.0mph /  12.9km/h 65% 0.00in /  0mm
18:05 54.9 °F /  12.7 °C 43.7 °F /  6.5 °C 30.04in /  1017.2hPa WSW 5.0mph /  8km/h 10.0mph /  16.1km/h 66% 0.00in /  0mm
18:10 54.5 °F /  12.5 °C 43.4 °F /  6.3 °C 30.04in /  1017.2hPa SW 5.0mph /  8km/h 10.0mph /  16.1km/h 66% 0.00in /  0mm
18:15 54.4 °F /  12.4 °C 43.7 °F /  6.5 °C 30.04in /  1017.2hPa WSW 4.0mph /  6.4km/h 8.0mph /  12.9km/h 67% 0.00in /  0mm
18:20 54.1 °F /  12.3 °C 43.4 °F /  6.3 °C 30.03in /  1016.8hPa SW 4.0mph /  6.4km/h 9.0mph /  14.5km/h 67% 0.00in /  0mm
18:25 54.1 °F /  12.3 °C 43.4 °F /  6.3 °C 30.03in /  1016.8hPa SW 4.0mph /  6.4km/h 9.0mph /  14.5km/h 67% 0.00in /  0mm
18:30 54.1 °F /  12.3 °C 43.4 °F /  6.3 °C 30.03in /  1016.8hPa SW 4.0mph /  6.4km/h 6.0mph /  9.7km/h 67% 0.00in /  0mm
18:35 54.1 °F /  12.3 °C 43.8 °F /  6.6 °C 30.03in /  1016.8hPa Calm   6.0mph /  9.7km/h 68% 0.00in /  0mm
18:40 54.1 °F /  12.3 °C 43.8 °F /  6.6 °C 30.03in /  1016.8hPa SW 3.0mph /  4.8km/h 8.0mph /  12.9km/h 68% 0.00in /  0mm
18:45 54.1 °F /  12.3 °C 43.8 °F /  6.6 °C 30.03in /  1016.8hPa WSW 1.0mph /  1.6km/h 7.0mph /  11.3km/h 68% 0.00in /  0mm
18:50 54.0 °F /  12.2 °C 43.7 °F /  6.5 °C 30.02in /  1016.5hPa SW 4.0mph /  6.4km/h 9.0mph /  14.5km/h 68% 0.00in /  0mm
18:55 53.9 °F /  12.2 °C 43.6 °F /  6.4 °C 30.02in /  1016.5hPa SSW 2.0mph /  3.2km/h 6.0mph /  9.7km/h 68% 0.00in /  0mm
19:00 53.9 °F /  12.2 °C 43.6 °F /  6.4 °C 30.02in /  1016.5hPa SW 5.0mph /  8km/h 5.0mph /  8km/h 68% 0.00in /  0mm
19:05 53.9 °F /  12.2 °C 43.6 °F /  6.4 °C 30.02in /  1016.5hPa SW 3.0mph /  4.8km/h 8.0mph /  12.9km/h 68% 0.00in /  0mm
19:10 53.8 °F /  12.1 °C 43.5 °F /  6.4 °C 30.03in /  1016.8hPa SW 3.0mph /  4.8km/h 8.0mph /  12.9km/h 68% 0.00in /  0mm
19:15 53.7 °F /  12.1 °C 43.4 °F /  6.3 °C 30.02in /  1016.5hPa SW 3.0mph /  4.8km/h 8.0mph /  12.9km/h 68% 0.00in /  0mm
19:20 53.7 °F /  12.1 °C 43.4 °F /  6.3 °C 30.02in /  1016.5hPa SW 4.0mph /  6.4km/h 9.0mph /  14.5km/h 68% 0.00in /  0mm
19:25 53.8 °F /  12.1 °C 43.5 °F /  6.4 °C 30.02in /  1016.5hPa WSW 7.0mph /  11.3km/h 7.0mph /  11.3km/h 68% 0.00in /  0mm
19:30 53.7 °F /  12.1 °C 43.4 °F /  6.3 °C 30.01in /  1016.1hPa SSW 4.0mph /  6.4km/h 7.0mph /  11.3km/h 68% 0.00in /  0mm
19:35 53.7 °F /  12.1 °C 43.4 °F /  6.3 °C 30.01in /  1016.1hPa SW 1.0mph /  1.6km/h 6.0mph /  9.7km/h 68% 0.00in /  0mm
19:40 53.6 °F /  12 °C 43.3 °F /  6.3 °C 30.01in /  1016.1hPa SW 3.0mph /  4.8km/h 6.0mph /  9.7km/h 68% 0.00in /  0mm
19:45 53.7 °F /  12.1 °C 43.8 °F /  6.6 °C 30.01in /  1016.1hPa SW 3.0mph /  4.8km/h 6.0mph /  9.7km/h 69% 0.00in /  0mm
19:50 53.6 °F /  12 °C 43.7 °F /  6.5 °C 30.01in /  1016.1hPa SW 3.0mph /  4.8km/h 7.0mph /  11.3km/h 69% 0.00in /  0mm
19:55 53.6 °F /  12 °C 43.7 °F /  6.5 °C 30.00in /  1015.8hPa SSW 3.0mph /  4.8km/h 7.0mph /  11.3km/h 69% 0.00in /  0mm
20:00 53.7 °F /  12.1 °C 43.8 °F /  6.6 °C 30.01in /  1016.1hPa SW 2.0mph /  3.2km/h 5.0mph /  8km/h 69% 0.00in /  0mm
20:05 53.6 °F /  12 °C 43.7 °F /  6.5 °C 30.01in /  1016.1hPa SW 3.0mph /  4.8km/h 6.0mph /  9.7km/h 69% 0.00in /  0mm
20:10 53.7 °F /  12.1 °C 43.8 °F /  6.6 °C 30.01in /  1016.1hPa SW 3.0mph /  4.8km/h 6.0mph /  9.7km/h 69% 0.00in /  0mm
20:15 53.7 °F /  12.1 °C 43.8 °F /  6.6 °C 30.01in /  1016.1hPa WSW 4.0mph /  6.4km/h 8.0mph /  12.9km/h 69% 0.00in /  0mm
20:20 53.6 °F /  12 °C 43.7 °F /  6.5 °C 30.02in /  1016.5hPa SW 4.0mph /  6.4km/h 9.0mph /  14.5km/h 69% 0.00in /  0mm
20:25 53.6 °F /  12 °C 43.7 °F /  6.5 °C 30.01in /  1016.1hPa SW 2.0mph /  3.2km/h 6.0mph /  9.7km/h 69% 0.00in /  0mm
20:30 53.6 °F /  12 °C 43.7 °F /  6.5 °C 30.02in /  1016.5hPa WSW 5.0mph /  8km/h 6.0mph /  9.7km/h 69% 0.00in /  0mm
20:35 53.5 °F /  11.9 °C 43.6 °F /  6.4 °C 30.02in /  1016.5hPa WSW 2.0mph /  3.2km/h 7.0mph /  11.3km/h 69% 0.00in /  0mm
20:40 53.5 °F /  11.9 °C 43.6 °F /  6.4 °C 30.02in /  1016.5hPa WSW 4.0mph /  6.4km/h 7.0mph /  11.3km/h 69% 0.00in /  0mm
20:45 53.3 °F /  11.8 °C 43.4 °F /  6.3 °C 30.02in /  1016.5hPa WSW 3.0mph /  4.8km/h 6.0mph /  9.7km/h 69% 0.00in /  0mm
20:50 53.2 °F /  11.8 °C 43.7 °F /  6.5 °C 30.02in /  1016.5hPa SW 3.0mph /  4.8km/h 6.0mph /  9.7km/h 70% 0.00in /  0mm
20:55 53.1 °F /  11.7 °C 43.6 °F /  6.4 °C 30.02in /  1016.5hPa SW 3.0mph /  4.8km/h 7.0mph /  11.3km/h 70% 0.00in /  0mm
21:00 53.0 °F /  11.7 °C 43.5 °F /  6.4 °C 30.02in /  1016.5hPa SW 3.0mph /  4.8km/h 7.0mph /  11.3km/h 70% 0.00in /  0mm
21:05 53.0 °F /  11.7 °C 43.5 °F /  6.4 °C 30.01in /  1016.1hPa WSW 2.0mph /  3.2km/h 6.0mph /  9.7km/h 70% 0.00in /  0mm
21:10 53.0 °F /  11.7 °C 43.5 °F /  6.4 °C 30.01in /  1016.1hPa SW 2.0mph /  3.2km/h 4.0mph /  6.4km/h 70% 0.00in /  0mm
21:15 53.0 °F /  11.7 °C 43.8 °F /  6.6 °C 30.01in /  1016.1hPa SW 3.0mph /  4.8km/h 4.0mph /  6.4km/h 71% 0.00in /  0mm
21:20 52.9 °F /  11.6 °C 43.7 °F /  6.5 °C 30.01in /  1016.1hPa SSW 2.0mph /  3.2km/h 7.0mph /  11.3km/h 71% 0.00in /  0mm
21:25 53.0 °F /  11.7 °C 43.8 °F /  6.6 °C 30.01in /  1016.1hPa SSW 2.0mph /  3.2km/h 5.0mph /  8km/h 71% 0.00in /  0mm
21:30 53.0 °F /  11.7 °C 43.8 °F /  6.6 °C 30.01in /  1016.1hPa SSW 3.0mph /  4.8km/h 4.0mph /  6.4km/h 71% 0.00in /  0mm
21:35 53.0 °F /  11.7 °C 43.8 °F /  6.6 °C 30.01in /  1016.1hPa Calm   5.0mph /  8km/h 71% 0.00in /  0mm
21:40 52.9 °F /  11.6 °C 43.7 °F /  6.5 °C 30.01in /  1016.1hPa SW 2.0mph /  3.2km/h 5.0mph /  8km/h 71% 0.00in /  0mm
21:45 53.0 °F /  11.7 °C 43.8 °F /  6.6 °C 30.01in /  1016.1hPa SSW 2.0mph /  3.2km/h 6.0mph /  9.7km/h 71% 0.00in /  0mm
21:50 53.0 °F /  11.7 °C 44.2 °F /  6.8 °C 30.01in /  1016.1hPa SSW 2.0mph /  3.2km/h 6.0mph /  9.7km/h 72% 0.00in /  0mm
21:55 52.8 °F /  11.6 °C 44.0 °F /  6.7 °C 30.00in /  1015.8hPa South 2.0mph /  3.2km/h 4.0mph /  6.4km/h 72% 0.00in /  0mm
22:00 52.8 °F /  11.6 °C 44.0 °F /  6.7 °C 29.99in /  1015.5hPa South 1.0mph /  1.6km/h 4.0mph /  6.4km/h 72% 0.00in /  0mm
22:05 53.0 °F /  11.7 °C 44.2 °F /  6.8 °C 29.99in /  1015.5hPa Calm   3.0mph /  4.8km/h 72% 0.00in /  0mm
22:10 53.3 °F /  11.8 °C 44.5 °F /  6.9 °C 29.98in /  1015.1hPa SSW 1.0mph /  1.6km/h 3.0mph /  4.8km/h 72% 0.00in /  0mm
22:15 53.5 °F /  11.9 °C 44.7 °F /  7.1 °C 29.99in /  1015.5hPa SSW 1.0mph /  1.6km/h 3.0mph /  4.8km/h 72% 0.00in /  0mm
22:20 53.5 °F /  11.9 °C 44.7 °F /  7.1 °C 29.99in /  1015.5hPa SSW 1.0mph /  1.6km/h 3.0mph /  4.8km/h 72% 0.00in /  0mm
22:25 53.6 °F /  12 °C 44.8 °F /  7.1 °C 29.99in /  1015.5hPa Calm   3.0mph /  4.8km/h 72% 0.00in /  0mm
22:30 53.7 °F /  12.1 °C 44.9 °F /  7.2 °C 29.98in /  1015.1hPa SSW 1.0mph /  1.6km/h 3.0mph /  4.8km/h 72% 0.00in /  0mm
22:35 53.9 °F /  12.2 °C 45.4 °F /  7.4 °C 29.98in /  1015.1hPa Calm   3.0mph /  4.8km/h 73% 0.00in /  0mm
22:40 54.2 °F /  12.3 °C 45.7 °F /  7.6 °C 29.99in /  1015.5hPa SSW 1.0mph /  1.6km/h 3.0mph /  4.8km/h 73% 0.00in /  0mm
22:45 54.4 °F /  12.4 °C 45.9 °F /  7.7 °C 29.98in /  1015.1hPa SSW 1.0mph /  1.6km/h 3.0mph /  4.8km/h 73% 0.00in /  0mm
22:50 54.5 °F /  12.5 °C 46.0 °F /  7.8 °C 29.98in /  1015.1hPa Calm   4.0mph /  6.4km/h 73% 0.00in /  0mm
22:55 54.6 °F /  12.6 °C 46.1 °F /  7.8 °C 29.99in /  1015.5hPa South 2.0mph /  3.2km/h 5.0mph /  8km/h 73% 0.00in /  0mm
23:00 54.5 °F /  12.5 °C 46.0 °F /  7.8 °C 29.99in /  1015.5hPa SSW 1.0mph /  1.6km/h 4.0mph /  6.4km/h 73% 0.00in /  0mm
23:05 54.3 °F /  12.4 °C 45.8 °F /  7.7 °C 29.98in /  1015.1hPa SSW 2.0mph /  3.2km/h 4.0mph /  6.4km/h 73% 0.00in /  0mm
23:10 54.4 °F /  12.4 °C 46.3 °F /  7.9 °C 29.98in /  1015.1hPa SSW 2.0mph /  3.2km/h 4.0mph /  6.4km/h 74% 0.00in /  0mm
23:15 54.6 °F /  12.6 °C 46.5 °F /  8.1 °C 29.98in /  1015.1hPa South 1.0mph /  1.6km/h 4.0mph /  6.4km/h 74% 0.00in /  0mm
23:25 55.0 °F /  12.8 °C 46.5 °F /  8.1 °C 29.98in /  1015.1hPa SSW 1.0mph /  1.6km/h 4.0mph /  6.4km/h 73% 0.00in /  0mm
23:30 55.2 °F /  12.9 °C 46.7 °F /  8.2 °C 29.98in /  1015.1hPa Calm   2.0mph /  3.2km/h 73% 0.00in /  0mm
23:35 55.3 °F /  12.9 °C 46.4 °F /  8 °C 29.98in /  1015.1hPa Calm   2.0mph /  3.2km/h 72% 0.00in /  0mm
23:40 55.5 °F /  13.1 °C 46.6 °F /  8.1 °C 29.98in /  1015.1hPa Calm     72% 0.00in /  0mm
23:45 55.7 °F /  13.2 °C 46.8 °F /  8.2 °C 29.98in /  1015.1hPa Calm   1.0mph /  1.6km/h 72% 0.00in /  0mm
23:50 56.0 °F /  13.3 °C 47.1 °F /  8.4 °C 29.98in /  1015.1hPa Calm     72% 0.00in /  0mm
23:55 56.2 °F /  13.4 °C 46.9 °F /  8.3 °C 29.98in /  1015.1hPa Calm     71% 0.00in /  0mm
Buffalo, New York, USA
Compliments of Weather Underground - 2.5 mb